createdAt,value
2023-01-01T00:01:42.240Z,6.10
2023-01-01T00:04:13.183Z,6.43
2023-01-01T00:06:40.216Z,8.57
2023-01-01T00:09:25.744Z,8.33
2023-01-01T00:11:52.343Z,8.70
2023-01-01T00:14:18.974Z,7.00
2023-01-01T00:16:45.873Z,8.03
2023-01-01T00:19:12.533Z,6.77
2023-01-01T00:21:40.241Z,6.67
2023-01-01T00:24:07.656Z,5.87
2023-01-01T00:26:35.692Z,10.37
2023-01-01T00:29:03.426Z,21.67
2023-01-01T00:31:30.939Z,4.87
2023-01-01T00:33:58.481Z,5.43
2023-01-01T00:36:26.818Z,6.23
2023-01-01T00:38:54.147Z,6.40
2023-01-01T00:41:21.374Z,4.97
2023-01-01T00:43:48.158Z,7.40
2023-01-01T00:46:15.270Z,6.17
2023-01-01T00:48:41.978Z,4.73
2023-01-01T00:51:09.245Z,5.30
2023-01-01T00:53:36.273Z,5.10
2023-01-01T00:56:03.647Z,4.83
2023-01-01T00:58:30.543Z,5.87
2023-01-01T01:00:57.545Z,6.20
2023-01-01T01:03:28.443Z,5.70
2023-01-01T01:06:02.689Z,5.40
2023-01-01T01:08:34.622Z,5.10
2023-01-01T01:11:25.240Z,5.37
2023-01-01T01:13:55.157Z,6.87
2023-01-01T01:16:32.357Z,5.40
2023-01-01T01:19:01.620Z,6.20
2023-01-01T01:21:30.663Z,5.67
2023-01-01T01:23:59.067Z,8.07
2023-01-01T01:26:28.086Z,6.10
2023-01-01T01:28:55.184Z,7.37
2023-01-01T01:31:24.168Z,5.37
2023-01-01T01:33:51.569Z,8.20
2023-01-01T01:36:18.911Z,6.30
2023-01-01T01:38:45.895Z,10.17
2023-01-01T01:41:27.428Z,8.57
2023-01-01T01:43:55.030Z,9.10
2023-01-01T01:46:25.318Z,10.23
2023-01-01T01:48:53.686Z,10.07
2023-01-01T01:51:30.246Z,8.87
2023-01-01T01:54:02.624Z,11.10
2023-01-01T01:57:01.584Z,8.03
2023-01-01T01:59:32.288Z,11.27
2023-01-01T02:01:59.924Z,9.77
2023-01-01T02:04:27.139Z,9.07
2023-01-01T02:06:55.177Z,10.87
2023-01-01T02:09:22.636Z,9.97
2023-01-01T02:11:49.542Z,11.00
2023-01-01T02:14:16.407Z,12.50
2023-01-01T02:17:06.831Z,10.43
2023-01-01T02:19:52.595Z,13.70
2023-01-01T02:22:33.396Z,10.10
2023-01-01T02:25:13.521Z,10.20
2023-01-01T02:28:07.577Z,11.87
2023-01-01T02:30:36.381Z,12.63
2023-01-01T02:33:09.452Z,11.53
2023-01-01T02:35:57.921Z,11.90
2023-01-01T02:38:32.838Z,11.73
2023-01-01T02:41:06.575Z,11.67
2023-01-01T02:43:33.525Z,11.20
2023-01-01T02:46:05.362Z,11.00
2023-01-01T02:48:52.440Z,10.60
2023-01-01T02:51:55.269Z,12.80
2023-01-01T02:54:31.225Z,11.73
2023-01-01T02:57:09.887Z,12.03
2023-01-01T03:00:21.849Z,12.40
2023-01-01T03:03:14.983Z,10.97
2023-01-01T03:06:23.727Z,11.00
2023-01-01T03:09:15.323Z,12.33
2023-01-01T03:12:06.421Z,11.57
2023-01-01T03:15:04.471Z,11.63
2023-01-01T03:17:36.325Z,10.67
2023-01-01T03:20:10.488Z,12.70
2023-01-01T03:25:16.876Z,13.73
2023-01-01T03:27:50.452Z,10.43
2023-01-01T03:30:20.299Z,13.57
2023-01-01T03:33:08.698Z,13.10
2023-01-01T03:36:10.377Z,13.93
2023-01-01T03:38:59.207Z,12.13
2023-01-01T03:41:38.378Z,11.43
2023-01-01T03:44:19.062Z,10.83
2023-01-01T03:46:46.352Z,11.10
2023-01-01T03:49:14.564Z,13.40
2023-01-01T03:52:27.298Z,10.77
2023-01-01T03:55:02.547Z,12.60
2023-01-01T03:58:01.719Z,10.27
2023-01-01T04:00:33.891Z,10.23
2023-01-01T04:03:06.238Z,8.93
2023-01-01T04:05:37.535Z,9.20
2023-01-01T04:08:05.352Z,10.00
2023-01-01T04:10:35.774Z,9.43
2023-01-01T04:13:05.535Z,10.83
2023-01-01T04:15:33.628Z,10.20
2023-01-01T04:18:00.300Z,10.67
2023-01-01T04:20:27.058Z,8.97
2023-01-01T04:22:56.891Z,10.63
2023-01-01T04:25:23.645Z,11.00
2023-01-01T04:27:50.575Z,8.13
2023-01-01T04:30:17.952Z,8.63
2023-01-01T04:32:44.736Z,8.47
2023-01-01T04:35:13.163Z,7.77
2023-01-01T04:37:41.603Z,9.60
2023-01-01T04:40:09.072Z,8.17
2023-01-01T04:42:36.138Z,8.60
2023-01-01T04:45:03.215Z,8.63
2023-01-01T04:47:30.007Z,10.30
2023-01-01T04:49:56.945Z,9.83
2023-01-01T04:52:23.988Z,7.93
2023-01-01T04:54:50.644Z,8.47
2023-01-01T04:57:17.555Z,9.03
2023-01-01T04:59:44.517Z,8.37
2023-01-01T05:02:11.527Z,9.23
2023-01-01T05:04:38.315Z,9.30
2023-01-01T05:07:05.078Z,8.30
2023-01-01T05:09:32.011Z,7.40
2023-01-01T05:11:58.687Z,8.80
2023-01-01T05:14:25.680Z,9.00
2023-01-01T05:16:53.186Z,9.27
2023-01-01T05:19:20.203Z,7.57
2023-01-01T05:21:46.897Z,8.33
2023-01-01T05:24:13.887Z,8.77
2023-01-01T05:26:43.075Z,9.37
2023-01-01T05:29:16.145Z,7.90
2023-01-01T05:31:43.758Z,9.43
2023-01-01T05:34:10.538Z,9.80
2023-01-01T05:36:39.204Z,8.60
2023-01-01T05:39:12.332Z,8.67
2023-01-01T05:41:40.163Z,7.33
2023-01-01T05:44:08.897Z,8.87
2023-01-01T05:46:36.057Z,7.77
2023-01-01T05:49:02.778Z,8.67
2023-01-01T05:53:58.811Z,8.03
2023-01-01T05:56:26.608Z,7.70
2023-01-01T05:58:54.158Z,9.30
2023-01-01T06:01:24.978Z,8.03
2023-01-01T06:03:53.202Z,8.10
2023-01-01T06:06:24.391Z,7.10
2023-01-01T06:08:56.653Z,7.57
2023-01-01T06:11:24.248Z,8.23
2023-01-01T06:13:56.002Z,7.97
2023-01-01T06:16:23.718Z,7.63
2023-01-01T06:18:50.830Z,7.37
2023-01-01T06:21:22.791Z,7.07
2023-01-01T06:23:50.063Z,6.03
2023-01-01T06:26:25.977Z,7.50
2023-01-01T06:28:52.724Z,7.17
2023-01-01T06:31:21.337Z,7.10
2023-01-01T06:33:49.281Z,6.73
2023-01-01T06:36:17.872Z,6.43
2023-01-01T06:38:47.410Z,5.73
2023-01-01T06:41:17.663Z,6.33
2023-01-01T06:43:45.259Z,6.80
2023-01-01T06:46:27.598Z,7.17
2023-01-01T06:48:57.231Z,8.13
2023-01-01T06:51:30.080Z,8.67
2023-01-01T06:54:00.183Z,6.50
2023-01-01T06:56:27.827Z,6.37
2023-01-01T06:58:54.563Z,7.47
2023-01-01T07:01:24.083Z,6.30
2023-01-01T07:03:57.008Z,6.77
2023-01-01T07:06:25.115Z,6.37
2023-01-01T07:08:52.588Z,6.03
2023-01-01T07:11:19.588Z,5.93
2023-01-01T07:13:46.601Z,6.57
2023-01-01T07:16:13.967Z,6.53
2023-01-01T07:18:41.725Z,6.23
2023-01-01T07:21:29.807Z,5.83
2023-01-01T07:23:58.519Z,5.90
2023-01-01T07:26:26.878Z,6.63
2023-01-01T07:28:53.932Z,8.20
2023-01-01T07:31:21.132Z,6.77
2023-01-01T07:33:47.992Z,8.23
2023-01-01T07:36:14.976Z,5.87
2023-01-01T07:38:41.710Z,6.57
2023-01-01T07:41:09.554Z,5.87
2023-01-01T07:43:36.614Z,6.80
2023-01-01T07:46:03.926Z,9.77
2023-01-01T07:48:34.781Z,5.13
2023-01-01T07:51:06.399Z,6.70
2023-01-01T07:53:33.401Z,6.27
2023-01-01T07:56:00.314Z,9.60
2023-01-01T07:58:27.058Z,7.37
2023-01-01T08:00:54.046Z,5.53
2023-01-01T08:03:20.962Z,6.93
2023-01-01T08:05:48.617Z,7.03
2023-01-01T08:08:15.299Z,5.67
2023-01-01T08:10:57.645Z,5.30
2023-01-01T08:13:26.961Z,6.33
2023-01-01T08:15:55.840Z,6.53
2023-01-01T08:18:23.022Z,4.73
2023-01-01T08:20:49.784Z,7.20
2023-01-01T08:23:16.442Z,5.93
2023-01-01T08:25:43.404Z,4.60
2023-01-01T08:28:10.568Z,4.80
2023-01-01T08:30:37.259Z,6.03
2023-01-01T08:33:04.325Z,5.00
2023-01-01T08:35:31.255Z,4.53
2023-01-01T08:37:58.207Z,5.30
2023-01-01T08:40:24.917Z,6.53
2023-01-01T08:42:51.873Z,6.17
2023-01-01T08:45:18.606Z,5.10
2023-01-01T08:47:45.352Z,7.63
2023-01-01T08:50:12.081Z,5.13
2023-01-01T08:52:38.757Z,5.23
2023-01-01T08:55:46.548Z,4.90
2023-01-01T08:58:13.206Z,5.90
2023-01-01T09:00:39.862Z,4.77
2023-01-01T09:03:06.855Z,4.43
2023-01-01T09:06:02.793Z,4.03
2023-01-01T09:08:29.858Z,4.03
2023-01-01T09:11:01.802Z,6.57
2023-01-01T09:13:29.342Z,12.33
2023-01-01T09:15:56.515Z,6.47
2023-01-01T09:18:23.394Z,4.80
2023-01-01T09:21:07.805Z,6.17
2023-01-01T09:23:34.526Z,6.20
2023-01-01T09:26:06.270Z,5.77
2023-01-01T09:28:33.496Z,5.17
2023-01-01T09:31:01.158Z,5.07
2023-01-01T09:33:28.459Z,4.67
2023-01-01T09:35:55.130Z,4.33
2023-01-01T09:38:22.078Z,5.30
2023-01-01T09:41:20.865Z,5.40
2023-01-01T09:44:01.731Z,4.40
2023-01-01T09:46:31.948Z,5.47
2023-01-01T09:49:07.072Z,5.33
2023-01-01T09:51:41.155Z,5.00
2023-01-01T09:54:25.871Z,5.40
2023-01-01T09:56:57.118Z,5.57
2023-01-01T09:59:24.309Z,5.53
2023-01-01T10:02:05.510Z,5.63
2023-01-01T10:04:56.736Z,4.77
2023-01-01T10:07:51.310Z,5.07
2023-01-01T10:10:41.634Z,4.50
2023-01-01T10:13:23.105Z,4.73
2023-01-01T10:16:26.164Z,5.23
2023-01-01T10:18:58.820Z,5.17
2023-01-01T10:21:34.135Z,3.67
2023-01-01T10:24:05.694Z,4.47
2023-01-01T10:26:35.201Z,3.80
2023-01-01T10:29:19.988Z,5.70
2023-01-01T10:31:47.788Z,4.60
2023-01-01T10:34:29.174Z,5.27
2023-01-01T10:36:58.759Z,3.70
2023-01-01T10:39:26.420Z,6.53
2023-01-01T10:41:53.424Z,5.63
2023-01-01T10:44:30.479Z,4.93
2023-01-01T10:46:59.071Z,5.00
2023-01-01T10:49:25.729Z,5.47
2023-01-01T10:51:56.826Z,5.20
2023-01-01T10:54:32.181Z,4.97
2023-01-01T10:56:59.737Z,4.13
2023-01-01T10:59:35.775Z,6.73
2023-01-01T11:02:26.296Z,4.70
2023-01-01T11:05:16.310Z,4.30
2023-01-01T11:07:46.765Z,4.80
2023-01-01T11:10:22.813Z,4.53
2023-01-01T11:13:09.808Z,5.27
2023-01-01T11:15:42.832Z,6.33
2023-01-01T11:18:13.982Z,7.67
2023-01-01T11:20:42.022Z,8.23
2023-01-01T11:23:36.078Z,5.67
2023-01-01T11:26:16.619Z,5.67
2023-01-01T11:28:58.411Z,5.90
2023-01-01T11:31:36.086Z,3.53
2023-01-01T11:34:04.428Z,6.70
2023-01-01T11:36:35.773Z,4.33
2023-01-01T11:39:27.322Z,6.67
2023-01-01T11:41:56.836Z,4.07
2023-01-01T11:44:41.740Z,5.17
2023-01-01T11:47:22.488Z,3.97
2023-01-01T11:50:15.561Z,4.17
2023-01-01T11:52:48.244Z,4.93
2023-01-01T11:55:18.191Z,7.57
2023-01-01T11:57:53.701Z,3.67
2023-01-01T12:00:20.597Z,3.70
2023-01-01T12:02:57.891Z,3.83
2023-01-01T12:05:37.672Z,3.80
2023-01-01T12:08:08.937Z,4.37
2023-01-01T12:10:51.621Z,3.43
2023-01-01T12:13:23.148Z,7.37
2023-01-01T12:16:07.700Z,5.80
2023-01-01T12:18:37.557Z,4.80
2023-01-01T12:21:12.362Z,5.10
2023-01-01T12:23:40.101Z,4.07
2023-01-01T12:26:13.653Z,3.93
2023-01-01T12:28:48.481Z,8.17
2023-01-01T12:31:18.270Z,15.10
2023-01-01T12:34:01.199Z,4.83
2023-01-01T12:37:01.077Z,3.27
2023-01-01T12:39:30.767Z,5.73
2023-01-01T12:42:33.811Z,4.23
2023-01-01T12:45:19.113Z,3.23
2023-01-01T12:47:56.357Z,3.67
2023-01-01T12:50:58.490Z,3.87
2023-01-01T12:53:43.406Z,2.90
2023-01-01T12:56:50.836Z,5.47
2023-01-01T12:59:42.064Z,6.07
2023-01-01T13:02:19.192Z,3.30
2023-01-01T13:04:49.968Z,4.83
2023-01-01T13:07:26.334Z,3.87
2023-01-01T13:09:54.315Z,4.60
2023-01-01T13:12:27.662Z,3.63
2023-01-01T13:14:54.637Z,4.90
2023-01-01T13:17:27.171Z,5.27
2023-01-01T13:20:16.707Z,5.97
2023-01-01T13:22:44.560Z,4.20
2023-01-01T13:25:11.326Z,5.47
2023-01-01T13:28:00.457Z,4.50
2023-01-01T13:30:36.493Z,6.00
2023-01-01T13:33:32.548Z,4.40
2023-01-01T13:36:08.478Z,3.43
2023-01-01T13:38:55.725Z,4.53
2023-01-01T13:41:28.516Z,3.23
2023-01-01T13:44:01.414Z,3.57
2023-01-01T13:46:42.258Z,4.60
2023-01-01T13:49:31.129Z,5.50
2023-01-01T13:52:13.339Z,3.90
2023-01-01T13:54:55.019Z,4.63
2023-01-01T13:58:10.770Z,5.60
2023-01-01T14:00:49.842Z,7.33
2023-01-01T14:03:18.307Z,4.80
2023-01-01T14:06:10.995Z,6.27
2023-01-01T14:08:38.246Z,9.70
2023-01-01T14:11:25.414Z,10.33
2023-01-01T14:13:52.074Z,22.90
2023-01-01T14:16:18.938Z,17.43
2023-01-01T14:18:49.323Z,8.33
2023-01-01T14:21:25.794Z,5.27
2023-01-01T14:23:56.478Z,4.20
2023-01-01T14:26:25.913Z,6.83
2023-01-01T14:28:58.172Z,4.53
2023-01-01T14:31:32.152Z,6.53
2023-01-01T14:33:59.216Z,5.97
2023-01-01T14:36:31.615Z,4.10
2023-01-01T14:39:03.291Z,9.10
2023-01-01T14:41:39.829Z,4.00
2023-01-01T14:44:13.277Z,6.33
2023-01-01T14:46:42.020Z,7.40
2023-01-01T14:49:12.383Z,9.73
2023-01-01T14:51:45.028Z,7.87
2023-01-01T14:54:18.370Z,5.27
2023-01-01T14:56:49.931Z,6.87
2023-01-01T14:59:16.595Z,5.43
2023-01-01T15:01:43.786Z,5.23
2023-01-01T15:04:20.451Z,6.83
2023-01-01T15:06:54.131Z,5.33
2023-01-01T15:09:20.921Z,5.37
2023-01-01T15:11:47.991Z,4.93
2023-01-01T15:14:49.936Z,5.30
2023-01-01T15:17:19.189Z,5.17
2023-01-01T15:20:41.234Z,4.57
2023-01-01T15:23:15.960Z,4.37
2023-01-01T15:26:09.091Z,3.43
2023-01-01T15:28:38.308Z,5.27
2023-01-01T15:31:05.359Z,4.03
2023-01-01T15:33:32.170Z,7.10
2023-01-01T15:36:02.846Z,5.20
2023-01-01T15:38:34.788Z,3.97
2023-01-01T15:41:21.682Z,4.03
2023-01-01T15:43:48.611Z,3.83
2023-01-01T15:46:32.492Z,4.63
2023-01-01T15:48:59.726Z,4.20
2023-01-01T15:51:28.365Z,3.03
2023-01-01T15:54:01.447Z,5.27
2023-01-01T15:56:31.398Z,6.27
2023-01-01T15:59:31.747Z,4.30
2023-01-01T16:02:18.191Z,6.00
2023-01-01T16:04:50.524Z,6.60
2023-01-01T16:07:20.939Z,4.60
2023-01-01T16:09:51.971Z,4.90
2023-01-01T16:12:23.593Z,4.73
2023-01-01T16:14:50.333Z,5.23
2023-01-01T16:17:19.910Z,5.47
2023-01-01T16:19:48.175Z,5.00
2023-01-01T16:22:16.984Z,4.47
2023-01-01T16:24:45.266Z,9.47
2023-01-01T16:27:16.094Z,4.73
2023-01-01T16:29:43.865Z,4.83
2023-01-01T16:32:18.383Z,5.00
2023-01-01T16:34:45.190Z,5.17
2023-01-01T16:37:11.918Z,5.67
2023-01-01T16:39:38.885Z,7.73
2023-01-01T16:42:05.692Z,4.97
2023-01-01T16:44:32.661Z,5.13
2023-01-01T16:46:59.583Z,4.97
2023-01-01T16:49:26.227Z,4.03
2023-01-01T16:51:52.889Z,4.67
2023-01-01T16:54:19.912Z,5.20
2023-01-01T16:56:46.669Z,5.90
2023-01-01T16:59:15.149Z,8.30
2023-01-01T17:01:42.304Z,5.33
2023-01-01T17:04:11.027Z,5.77
2023-01-01T17:06:41.111Z,4.77
2023-01-01T17:09:08.571Z,4.50
2023-01-01T17:11:36.783Z,5.20
2023-01-01T17:14:03.546Z,4.03
2023-01-01T17:16:38.266Z,3.37
2023-01-01T17:19:21.656Z,3.63
2023-01-01T17:21:48.756Z,2.63
2023-01-01T17:24:17.495Z,3.57
2023-01-01T17:26:44.712Z,6.47
2023-01-01T17:29:12.223Z,10.50
2023-01-01T17:31:38.961Z,15.77
2023-01-01T17:34:05.640Z,3.33
2023-01-01T17:36:32.658Z,9.77
2023-01-01T17:38:59.391Z,6.37
2023-01-01T17:41:26.152Z,5.60
2023-01-01T17:43:53.217Z,5.03
2023-01-01T17:46:26.207Z,7.00
2023-01-01T17:48:53.844Z,5.70
2023-01-01T17:51:21.543Z,6.93
2023-01-01T17:53:49.063Z,6.20
2023-01-01T17:56:18.636Z,7.23
2023-01-01T17:58:46.511Z,9.50
2023-01-01T18:01:35.006Z,11.83
2023-01-01T18:04:08.986Z,12.13
2023-01-01T18:06:41.994Z,11.47
2023-01-01T18:09:12.121Z,11.90
2023-01-01T18:11:39.121Z,12.20
2023-01-01T18:14:06.874Z,13.63
2023-01-01T18:16:47.085Z,12.50
2023-01-01T18:19:14.119Z,14.40
2023-01-01T18:21:41.703Z,16.70
2023-01-01T18:24:14.390Z,15.97
2023-01-01T18:26:41.629Z,13.33
2023-01-01T18:29:08.489Z,17.20
2023-01-01T18:31:35.798Z,15.93
2023-01-01T18:34:04.378Z,16.73
2023-01-01T18:36:33.665Z,19.67
2023-01-01T18:39:14.299Z,19.93
2023-01-01T18:41:55.798Z,21.67
2023-01-01T18:44:31.641Z,18.37
2023-01-01T18:47:04.092Z,17.97
2023-01-01T18:49:31.811Z,21.10
2023-01-01T18:52:07.965Z,16.77
2023-01-01T18:54:35.373Z,20.83
2023-01-01T18:57:11.211Z,22.03
2023-01-01T18:59:38.251Z,20.03
2023-01-01T19:02:26.939Z,20.27
2023-01-01T19:04:57.646Z,20.20
2023-01-01T19:07:24.910Z,19.37
2023-01-01T19:09:58.769Z,18.70
2023-01-01T19:12:28.454Z,19.70
2023-01-01T19:14:55.558Z,23.07
2023-01-01T19:17:23.543Z,21.00
2023-01-01T19:19:52.491Z,19.90
2023-01-01T19:22:30.072Z,21.60
2023-01-01T19:24:57.130Z,18.07
2023-01-01T19:27:25.088Z,17.13
2023-01-01T19:29:52.483Z,18.00
2023-01-01T19:32:20.776Z,17.17
2023-01-01T19:34:47.929Z,19.13
2023-01-01T19:37:14.711Z,13.70
2023-01-01T19:39:42.534Z,20.03
2023-01-01T19:42:09.686Z,20.80
2023-01-01T19:44:37.073Z,20.97
2023-01-01T19:47:05.175Z,19.77
2023-01-01T19:49:32.112Z,15.30
2023-01-01T19:51:58.873Z,18.27
2023-01-01T19:54:26.603Z,16.97
2023-01-01T19:56:53.447Z,16.73
2023-01-01T19:59:20.211Z,17.03
2023-01-01T20:01:57.635Z,17.60
2023-01-01T20:04:33.931Z,17.70
2023-01-01T20:07:00.686Z,14.33
2023-01-01T20:09:27.425Z,16.57
2023-01-01T20:11:54.394Z,15.20
2023-01-01T20:14:21.041Z,15.93
2023-01-01T20:16:48.317Z,12.87
2023-01-01T20:19:15.324Z,12.97
2023-01-01T20:22:00.416Z,14.23
2023-01-01T20:24:27.339Z,15.53
2023-01-01T20:26:53.991Z,13.40
2023-01-01T20:29:20.715Z,12.77
2023-01-01T20:31:52.964Z,14.70
2023-01-01T20:34:20.512Z,14.20
2023-01-01T20:37:06.215Z,11.40
2023-01-01T20:39:33.686Z,11.90
2023-01-01T20:42:00.447Z,11.73
2023-01-01T20:44:27.757Z,13.10
2023-01-01T20:46:54.897Z,11.40
2023-01-01T20:49:22.563Z,10.23
2023-01-01T20:51:51.437Z,9.53
2023-01-01T20:54:22.544Z,12.80
2023-01-01T20:56:49.654Z,9.63
2023-01-01T20:59:35.885Z,9.80
2023-01-01T21:02:08.624Z,9.77
2023-01-01T21:04:39.963Z,12.67
2023-01-01T21:07:11.762Z,11.40
2023-01-01T21:09:39.786Z,10.87
2023-01-01T21:12:07.532Z,14.57
2023-01-01T21:14:34.584Z,10.80
2023-01-01T21:17:14.854Z,12.03
2023-01-01T21:19:41.555Z,9.50
2023-01-01T21:22:24.963Z,9.13
2023-01-01T21:24:55.348Z,10.83
2023-01-01T21:27:33.969Z,9.63
2023-01-01T21:30:01.205Z,8.97
2023-01-01T21:32:39.288Z,10.33
2023-01-01T21:35:31.586Z,10.27
2023-01-01T21:37:59.494Z,8.83
2023-01-01T21:40:38.188Z,7.90
2023-01-01T21:43:04.852Z,8.50
2023-01-01T21:45:37.057Z,9.50
2023-01-01T21:48:28.338Z,10.17
2023-01-01T21:50:55.458Z,10.03
2023-01-01T21:53:24.252Z,8.07
2023-01-01T21:55:53.550Z,8.10
2023-01-01T21:58:50.923Z,8.23
2023-01-01T22:01:28.041Z,10.37
2023-01-01T22:04:02.448Z,9.97
2023-01-01T22:06:37.382Z,8.17
2023-01-01T22:09:11.526Z,9.33
2023-01-01T22:11:38.445Z,6.93
2023-01-01T22:14:15.538Z,8.50
2023-01-01T22:16:42.999Z,10.80
2023-01-01T22:19:19.304Z,7.40
2023-01-01T22:21:47.975Z,7.30
2023-01-01T22:24:35.177Z,9.00
2023-01-01T22:27:19.940Z,8.50
2023-01-01T22:29:46.891Z,9.53
2023-01-01T22:32:29.611Z,8.37
2023-01-01T22:35:06.671Z,8.10
2023-01-01T22:37:38.862Z,8.43
2023-01-01T22:40:16.855Z,8.27
2023-01-01T22:42:43.587Z,6.90
2023-01-01T22:45:17.278Z,11.03
2023-01-01T22:47:45.105Z,8.37
2023-01-01T22:50:27.409Z,9.77
2023-01-01T22:52:54.334Z,8.80
2023-01-01T22:55:21.053Z,7.73
2023-01-01T22:57:47.998Z,9.70
2023-01-01T23:00:17.389Z,10.13
2023-01-01T23:02:45.250Z,8.57
2023-01-01T23:05:12.386Z,8.67
2023-01-01T23:07:42.100Z,6.77
2023-01-01T23:10:12.421Z,9.17
2023-01-01T23:12:39.263Z,7.03
2023-01-01T23:15:25.191Z,8.47
2023-01-01T23:17:52.076Z,7.57
2023-01-01T23:20:18.794Z,8.43
2023-01-01T23:22:49.881Z,7.37
2023-01-01T23:25:18.878Z,7.43
2023-01-01T23:27:47.634Z,8.37
2023-01-01T23:30:14.927Z,9.00
2023-01-01T23:32:42.610Z,6.47
2023-01-01T23:35:10.790Z,8.73
2023-01-01T23:37:38.527Z,7.50
2023-01-01T23:40:05.681Z,8.83
2023-01-01T23:42:32.575Z,8.07
2023-01-01T23:44:59.240Z,8.17
2023-01-01T23:47:26.235Z,8.70
2023-01-01T23:49:52.938Z,7.27
2023-01-01T23:52:19.617Z,9.10
2023-01-01T23:54:46.545Z,7.30
2023-01-01T23:57:14.142Z,6.63
2023-01-01T23:59:41.099Z,7.47
